createdAt,value
2022-11-02T00:00:31.716Z,100800.17
2022-11-02T00:03:23.294Z,100804.72
2022-11-02T00:05:54.920Z,100810.06
2022-11-02T00:08:26.570Z,100809.44
2022-11-02T00:10:58.184Z,100809.55
2022-11-02T00:13:30.029Z,100808.48
2022-11-02T00:16:04.186Z,100808.45
2022-11-02T00:18:37.966Z,100808.79
2022-11-02T00:21:09.832Z,100813.84
2022-11-02T00:23:43.015Z,100818.23
2022-11-02T00:26:15.657Z,100815.29
2022-11-02T00:28:47.582Z,100818.42
2022-11-02T00:31:19.233Z,100817.80
2022-11-02T00:33:50.901Z,100817.77
2022-11-02T00:36:24.785Z,100818.52
2022-11-02T00:38:56.760Z,100820.58
2022-11-02T00:41:28.851Z,100822.71
2022-11-02T00:44:00.584Z,100818.61
2022-11-02T00:46:32.234Z,100819.50
2022-11-02T00:49:03.950Z,100819.61
2022-11-02T00:51:37.409Z,100817.31
2022-11-02T00:54:09.102Z,100824.71
2022-11-02T00:56:40.860Z,100824.52
2022-11-02T00:59:12.546Z,100826.98
2022-11-02T01:01:47.708Z,100827.95
2022-11-02T01:04:19.806Z,100821.18
2022-11-02T01:06:51.532Z,100821.86
2022-11-02T01:09:23.157Z,100824.05
2022-11-02T01:11:55.664Z,100823.54
2022-11-02T01:14:27.445Z,100821.23
2022-11-02T01:16:59.102Z,100825.27
2022-11-02T01:19:30.859Z,100828.67
2022-11-02T01:22:02.658Z,100829.98
2022-11-02T01:24:34.354Z,100831.68
2022-11-02T01:27:07.713Z,100831.99
2022-11-02T01:29:39.361Z,100833.95
2022-11-02T01:32:11.076Z,100839.80
2022-11-02T01:34:42.936Z,100844.55
2022-11-02T01:37:14.589Z,100843.71
2022-11-02T01:39:46.320Z,100840.13
2022-11-02T01:42:23.018Z,100837.55
2022-11-02T01:44:55.060Z,100832.49
2022-11-02T01:47:29.535Z,100838.55
2022-11-02T01:50:07.201Z,100837.09
2022-11-02T01:52:41.937Z,100837.45
2022-11-02T01:55:19.370Z,100833.79
2022-11-02T01:57:56.944Z,100833.21
2022-11-02T02:00:28.758Z,100829.36
2022-11-02T02:03:06.643Z,100827.11
2022-11-02T02:05:43.773Z,100827.65
2022-11-02T02:08:20.442Z,100827.45
2022-11-02T02:10:52.654Z,100825.46
2022-11-02T02:13:25.398Z,100823.85
2022-11-02T02:16:04.705Z,100826.35
2022-11-02T02:18:42.632Z,100826.92
2022-11-02T02:21:35.634Z,100827.82
2022-11-02T02:24:39.329Z,100831.81
2022-11-02T02:27:16.693Z,100832.75
2022-11-02T02:29:55.953Z,100831.80
2022-11-02T02:32:34.285Z,100833.70
2022-11-02T02:35:20.301Z,100830.50
2022-11-02T02:37:59.144Z,100831.70
2022-11-02T02:40:36.265Z,100834.16
2022-11-02T02:43:13.620Z,100834.84
2022-11-02T02:45:53.137Z,100833.31
2022-11-02T02:48:27.185Z,100837.29
2022-11-02T02:51:09.431Z,100837.94
2022-11-02T02:53:46.155Z,100837.57
2022-11-02T02:56:22.649Z,100840.23
2022-11-02T02:58:58.812Z,100839.17
2022-11-02T03:01:32.310Z,100846.30
2022-11-02T03:04:04.160Z,100837.13
2022-11-02T03:06:37.834Z,100834.94
2022-11-02T03:09:20.477Z,100835.56
2022-11-02T03:12:01.790Z,100835.21
2022-11-02T03:14:52.981Z,100837.21
2022-11-02T03:17:33.648Z,100836.21
2022-11-02T03:20:20.280Z,100836.61
2022-11-02T03:23:00.875Z,100835.02
2022-11-02T03:25:40.814Z,100838.30
2022-11-02T03:28:17.529Z,100839.87
2022-11-02T03:30:57.725Z,100838.63
2022-11-02T03:33:36.778Z,100840.09
2022-11-02T03:36:14.095Z,100840.13
2022-11-02T03:38:50.832Z,100839.39
2022-11-02T03:41:25.142Z,100846.08
2022-11-02T03:44:03.829Z,100842.80
2022-11-02T03:46:39.840Z,100840.35
2022-11-02T03:49:19.311Z,100846.45
2022-11-02T03:51:53.144Z,100852.95
2022-11-02T03:54:35.638Z,100854.42
2022-11-02T03:57:11.439Z,100854.31
2022-11-02T03:59:45.166Z,100858.20
2022-11-02T04:02:19.689Z,100858.89
2022-11-02T04:04:54.711Z,100855.01
2022-11-02T04:07:58.379Z,100861.34
2022-11-02T04:10:31.418Z,100864.20
2022-11-02T04:13:21.262Z,100868.62
2022-11-02T04:15:54.128Z,100870.23
2022-11-02T04:18:43.461Z,100877.77
2022-11-02T04:21:15.269Z,100879.52
2022-11-02T04:24:04.670Z,100881.38
2022-11-02T04:26:36.337Z,100880.91
2022-11-02T04:29:08.108Z,100882.11
2022-11-02T04:31:39.953Z,100880.64
2022-11-02T04:34:12.247Z,100876.22
2022-11-02T04:36:44.522Z,100880.92
2022-11-02T04:39:16.460Z,100875.24
2022-11-02T04:41:48.258Z,100871.84
2022-11-02T04:44:45.841Z,100873.84
2022-11-02T04:47:23.446Z,100871.14
2022-11-02T04:49:55.457Z,100865.66
2022-11-02T04:52:26.742Z,100863.92
2022-11-02T04:54:58.715Z,100860.95
2022-11-02T04:57:30.748Z,100860.80
2022-11-02T05:00:07.270Z,100857.41
2022-11-02T05:02:39.161Z,100860.24
2022-11-02T05:05:12.586Z,100861.41
2022-11-02T05:07:45.036Z,100860.10
2022-11-02T05:10:17.575Z,100864.09
2022-11-02T05:12:48.752Z,100864.16
2022-11-02T05:15:20.671Z,100865.59
2022-11-02T05:17:52.669Z,100861.58
2022-11-02T05:20:25.063Z,100866.00
2022-11-02T05:22:58.218Z,100866.50
2022-11-02T05:25:30.409Z,100866.77
2022-11-02T05:28:02.969Z,100868.96
2022-11-02T05:30:35.180Z,100876.41
2022-11-02T05:33:07.506Z,100878.75
2022-11-02T05:35:39.922Z,100885.13
2022-11-02T05:38:12.129Z,100892.15
2022-11-02T05:40:43.809Z,100895.85
2022-11-02T05:43:16.633Z,100894.35
2022-11-02T05:45:54.236Z,100885.95
2022-11-02T05:48:27.141Z,100889.07
2022-11-02T05:51:00.375Z,100883.44
2022-11-02T05:53:34.286Z,100882.71
2022-11-02T05:56:08.091Z,100887.10
2022-11-02T05:58:40.451Z,100884.73
2022-11-02T06:01:13.535Z,100882.13
2022-11-02T06:03:49.139Z,100882.58
2022-11-02T06:06:24.808Z,100889.15
2022-11-02T06:08:57.241Z,100885.33
2022-11-02T06:11:28.896Z,100891.68
2022-11-02T06:14:00.611Z,100897.89
2022-11-02T06:16:32.544Z,100901.91
2022-11-02T06:19:04.648Z,100900.48
2022-11-02T06:21:36.332Z,100895.91
2022-11-02T06:24:08.918Z,100901.00
2022-11-02T06:26:40.609Z,100908.23
2022-11-02T06:29:12.260Z,100907.23
2022-11-02T06:31:43.955Z,100910.39
2022-11-02T06:34:15.625Z,100905.84
2022-11-02T06:36:47.309Z,100907.05
2022-11-02T06:39:18.928Z,100901.38
2022-11-02T06:41:50.762Z,100901.23
2022-11-02T06:44:22.443Z,100906.04
2022-11-02T06:46:54.249Z,100906.05
2022-11-02T06:49:27.598Z,100910.36
2022-11-02T06:51:59.358Z,100908.86
2022-11-02T06:54:31.029Z,100911.96
2022-11-02T06:57:02.758Z,100915.73
2022-11-02T06:59:34.356Z,100917.72
2022-11-02T07:02:06.125Z,100924.61
2022-11-02T07:04:40.382Z,100923.63
2022-11-02T07:07:12.199Z,100924.48
2022-11-02T07:09:43.967Z,100922.65
2022-11-02T07:12:19.222Z,100921.63
2022-11-02T07:14:54.744Z,100918.67
2022-11-02T07:17:31.874Z,100921.48
2022-11-02T07:20:05.259Z,100920.27
2022-11-02T07:22:36.928Z,100925.60
2022-11-02T07:25:09.611Z,100926.60
2022-11-02T07:27:44.117Z,100927.94
2022-11-02T07:30:16.017Z,100925.39
2022-11-02T07:32:48.412Z,100930.79
2022-11-02T07:35:20.217Z,100931.01
2022-11-02T07:37:59.839Z,100924.46
2022-11-02T07:40:33.550Z,100917.92
2022-11-02T07:43:06.108Z,100924.80
2022-11-02T07:45:45.491Z,100928.00
2022-11-02T07:48:17.302Z,100927.94
2022-11-02T07:50:49.144Z,100926.52
2022-11-02T07:53:20.959Z,100929.80
2022-11-02T07:55:52.861Z,100923.79
2022-11-02T07:58:24.628Z,100927.63
2022-11-02T08:00:59.907Z,100921.46
2022-11-02T08:03:32.492Z,100924.19
2022-11-02T08:06:04.872Z,100930.59
2022-11-02T08:08:37.244Z,100927.27
2022-11-02T08:11:09.017Z,100924.92
2022-11-02T08:13:40.988Z,100926.77
2022-11-02T08:16:12.696Z,100926.68
2022-11-02T08:19:01.437Z,100929.95
2022-11-02T08:21:33.205Z,100917.61
2022-11-02T08:24:05.303Z,100918.05
2022-11-02T08:26:38.743Z,100927.59
2022-11-02T08:29:13.094Z,100918.91
2022-11-02T08:31:45.006Z,100924.18
2022-11-02T08:34:16.917Z,100927.04
2022-11-02T08:36:48.983Z,100923.77
2022-11-02T08:39:20.811Z,100920.30
2022-11-02T08:41:52.544Z,100922.20
2022-11-02T08:44:24.371Z,100915.32
2022-11-02T08:47:02.176Z,100923.64
2022-11-02T08:49:36.224Z,100914.29
2022-11-02T08:52:08.274Z,100908.45
2022-11-02T08:54:40.371Z,100906.23
2022-11-02T08:57:12.373Z,100902.97
2022-11-02T08:59:44.266Z,100897.52
2022-11-02T09:02:16.221Z,100898.74
2022-11-02T09:04:47.984Z,100904.89
2022-11-02T09:07:19.740Z,100908.27
2022-11-02T09:09:51.538Z,100901.03
2022-11-02T09:12:23.313Z,100901.20
2022-11-02T09:14:55.273Z,100899.19
2022-11-02T09:17:27.039Z,100903.31
2022-11-02T09:19:58.756Z,100903.35
2022-11-02T09:22:30.523Z,100906.69
2022-11-02T09:25:02.352Z,100906.30
2022-11-02T09:27:34.353Z,100903.79
2022-11-02T09:30:07.325Z,100904.65
2022-11-02T09:32:39.679Z,100901.71
2022-11-02T09:35:13.111Z,100892.81
2022-11-02T09:37:50.925Z,100894.69
2022-11-02T09:40:25.896Z,100891.16
2022-11-02T09:43:08.286Z,100891.85
2022-11-02T09:45:54.995Z,100890.92
2022-11-02T09:48:32.507Z,100888.52
2022-11-02T09:51:09.581Z,100879.13
2022-11-02T09:53:48.225Z,100877.36
2022-11-02T09:56:21.244Z,100884.33
2022-11-02T09:58:58.313Z,100879.95
2022-11-02T10:01:41.044Z,100879.28
2022-11-02T10:04:34.282Z,100877.43
2022-11-02T10:07:12.087Z,100875.09
2022-11-02T10:09:53.998Z,100868.72
2022-11-02T10:12:32.796Z,100873.79
2022-11-02T10:15:12.115Z,100876.74
2022-11-02T10:17:45.299Z,100876.21
2022-11-02T10:20:26.046Z,100872.95
2022-11-02T10:23:04.442Z,100876.03
2022-11-02T10:25:38.677Z,100882.73
2022-11-02T10:28:19.278Z,100891.20
2022-11-02T10:30:53.763Z,100896.32
2022-11-02T10:33:28.750Z,100890.11
2022-11-02T10:36:20.179Z,100882.96
2022-11-02T10:39:04.431Z,100884.01
2022-11-02T10:41:52.325Z,100875.76
2022-11-02T10:44:41.832Z,100876.23
2022-11-02T10:47:18.791Z,100880.59
2022-11-02T10:50:34.309Z,100883.05
2022-11-02T10:53:35.375Z,100879.67
2022-11-02T10:56:09.630Z,100872.61
2022-11-02T10:58:46.684Z,100873.92
2022-11-02T11:01:18.511Z,100873.19
2022-11-02T11:04:04.278Z,100873.38
2022-11-02T11:06:38.323Z,100873.80
2022-11-02T11:09:19.169Z,100866.27
2022-11-02T11:11:59.886Z,100866.65
2022-11-02T11:20:37.256Z,100860.05
2022-11-02T11:23:26.769Z,100862.86
2022-11-02T11:26:03.665Z,100863.08
2022-11-02T11:28:41.099Z,100862.94
2022-11-02T11:31:16.701Z,100860.83
2022-11-02T11:33:52.978Z,100858.19
2022-11-02T11:36:30.760Z,100858.25
2022-11-02T11:39:05.041Z,100860.17
2022-11-02T11:41:41.604Z,100858.89
2022-11-02T11:44:16.341Z,100853.96
2022-11-02T11:46:51.460Z,100852.64
2022-11-02T11:52:30.921Z,100835.90
2022-11-02T11:55:20.754Z,100833.23
2022-11-02T11:58:07.940Z,100834.20
2022-11-02T12:00:40.267Z,100833.11
2022-11-02T12:03:14.216Z,100838.27
2022-11-02T12:06:01.476Z,100847.48
2022-11-02T12:08:47.250Z,100844.50
2022-11-02T12:11:35.200Z,100848.54
2022-11-02T12:14:33.313Z,100842.10
2022-11-02T12:17:20.599Z,100842.60
2022-11-02T12:20:12.857Z,100838.02
2022-11-02T12:22:55.202Z,100836.50
2022-11-02T12:25:42.447Z,100844.63
2022-11-02T12:28:30.126Z,100844.70
2022-11-02T12:31:12.698Z,100850.59
2022-11-02T12:33:57.004Z,100849.41
2022-11-02T12:37:01.702Z,100850.80
2022-11-02T12:39:50.139Z,100849.60
2022-11-02T12:42:29.794Z,100847.30
2022-11-02T12:45:18.352Z,100851.52
2022-11-02T12:47:59.316Z,100852.20
2022-11-02T12:50:49.069Z,100848.28
2022-11-02T12:53:43.238Z,100851.31
2022-11-02T12:56:21.075Z,100846.34
2022-11-02T12:58:54.306Z,100847.41
2022-11-02T13:01:32.188Z,100842.11
2022-11-02T13:04:16.447Z,100843.10
2022-11-02T13:06:52.409Z,100850.46
2022-11-02T13:09:31.708Z,100858.31
2022-11-02T13:12:07.273Z,100859.63
2022-11-02T13:14:43.829Z,100856.28
2022-11-02T13:17:21.336Z,100857.56
2022-11-02T13:19:55.959Z,100857.20
2022-11-02T13:22:32.141Z,100860.77
2022-11-02T13:25:16.090Z,100867.94
2022-11-02T13:27:53.526Z,100865.42
2022-11-02T13:30:25.285Z,100865.42
2022-11-02T13:33:04.104Z,100859.21
2022-11-02T13:35:40.974Z,100861.73
2022-11-02T13:38:26.018Z,100863.29
2022-11-02T13:41:13.250Z,100869.38
2022-11-02T13:44:05.328Z,100869.16
2022-11-02T13:46:59.083Z,100874.98
2022-11-02T13:49:35.751Z,100872.13
2022-11-02T13:52:14.029Z,100875.31
2022-11-02T13:54:51.917Z,100875.41
2022-11-02T13:57:33.573Z,100872.40
2022-11-02T14:00:09.582Z,100876.20
2022-11-02T14:02:44.794Z,100874.94
2022-11-02T14:05:34.134Z,100878.72
2022-11-02T14:08:08.914Z,100884.30
2022-11-02T14:10:42.650Z,100885.95
2022-11-02T14:13:17.717Z,100884.34
2022-11-02T14:15:54.827Z,100891.89
2022-11-02T14:18:33.494Z,100885.82
2022-11-02T14:21:32.440Z,100883.83
2022-11-02T14:24:04.574Z,100882.67
2022-11-02T14:26:56.834Z,100881.85
2022-11-02T14:29:52.688Z,100883.50
2022-11-02T14:32:36.298Z,100884.15
2022-11-02T14:35:19.740Z,100885.69
2022-11-02T14:38:12.766Z,100885.66
2022-11-02T14:40:50.022Z,100884.56
2022-11-02T14:44:03.988Z,100888.12
2022-11-02T14:46:48.903Z,100882.70
2022-11-02T14:49:23.941Z,100886.16
2022-11-02T14:52:04.542Z,100890.75
2022-11-02T14:54:47.601Z,100889.65
2022-11-02T14:57:25.861Z,100887.38
2022-11-02T15:00:01.097Z,100889.94
2022-11-02T15:02:40.316Z,100886.35
2022-11-02T15:05:27.585Z,100890.05
2022-11-02T15:08:03.546Z,100893.69
2022-11-02T15:10:43.421Z,100898.07
2022-11-02T15:13:37.536Z,100899.86
2022-11-02T15:16:25.085Z,100900.41
2022-11-02T15:19:19.747Z,100900.37
2022-11-02T15:21:52.098Z,100903.88
2022-11-02T15:24:29.537Z,100907.06
2022-11-02T15:27:03.457Z,100907.32
2022-11-02T15:29:38.705Z,100912.71
2022-11-02T15:32:18.223Z,100913.61
2022-11-02T15:34:56.076Z,100922.69
2022-11-02T15:37:37.337Z,100918.80
2022-11-02T15:40:22.653Z,100914.85
2022-11-02T15:43:06.221Z,100917.56
2022-11-02T15:46:02.083Z,100923.01
2022-11-02T15:48:44.758Z,100924.55
2022-11-02T15:51:26.017Z,100925.27
2022-11-02T15:54:24.728Z,100925.31
2022-11-02T15:57:08.017Z,100928.11
2022-11-02T16:00:08.281Z,100930.46
2022-11-02T16:02:44.938Z,100931.64
2022-11-02T16:05:21.705Z,100940.65
2022-11-02T16:08:11.366Z,100937.88
2022-11-02T16:10:43.495Z,100945.34
2022-11-02T16:13:17.946Z,100948.27
2022-11-02T16:15:51.032Z,100954.15
2022-11-02T16:18:27.962Z,100955.71
2022-11-02T16:21:02.578Z,100959.26
2022-11-02T16:23:36.630Z,100961.30
2022-11-02T16:26:19.819Z,100959.35
2022-11-02T16:28:55.074Z,100959.86
2022-11-02T16:31:31.153Z,100964.79
2022-11-02T16:34:06.451Z,100961.84
2022-11-02T16:36:40.188Z,100959.89
2022-11-02T16:39:20.149Z,100962.23
2022-11-02T16:41:57.201Z,100967.13
2022-11-02T16:44:31.533Z,100965.58
2022-11-02T16:47:19.010Z,100965.83
2022-11-02T16:50:11.707Z,100971.90
2022-11-02T16:52:43.521Z,100981.78
2022-11-02T16:55:36.343Z,100985.64
2022-11-02T16:58:13.619Z,100994.08
2022-11-02T17:00:56.621Z,100998.88
2022-11-02T17:03:34.124Z,101004.70
2022-11-02T17:06:09.265Z,101005.90
2022-11-02T17:08:44.260Z,101011.64
2022-11-02T17:11:18.555Z,101015.88
2022-11-02T17:13:54.897Z,101020.52
2022-11-02T17:16:26.848Z,101024.58
2022-11-02T17:18:58.621Z,101027.02
2022-11-02T17:21:31.486Z,101028.23
2022-11-02T17:24:23.353Z,101028.08
2022-11-02T17:27:25.103Z,101036.98
2022-11-02T17:29:57.726Z,101042.02
2022-11-02T17:32:30.005Z,101041.02
2022-11-02T17:35:02.703Z,101042.59
2022-11-02T17:37:33.530Z,101039.83
2022-11-02T17:40:10.962Z,101035.66
2022-11-02T17:43:02.357Z,101037.54
2022-11-02T17:45:37.481Z,101026.31
2022-11-02T17:48:12.469Z,101029.44
2022-11-02T17:50:45.847Z,101024.56
2022-11-02T17:53:18.758Z,101028.45
2022-11-02T17:55:51.388Z,101026.74
2022-11-02T17:58:21.888Z,101023.15
2022-11-02T18:00:55.514Z,101023.61
2022-11-02T18:03:31.264Z,101026.62
2022-11-02T18:06:10.372Z,101022.70
2022-11-02T18:09:03.446Z,101023.34
2022-11-02T18:11:36.670Z,101014.73
2022-11-02T18:14:16.840Z,101010.65
2022-11-02T18:16:51.013Z,101012.13
2022-11-02T18:19:24.214Z,101017.85
2022-11-02T18:21:57.268Z,101013.16
2022-11-02T18:24:30.413Z,101011.13
2022-11-02T18:27:02.676Z,101009.46
2022-11-02T18:29:39.992Z,101005.23
2022-11-02T18:32:13.108Z,101011.16
2022-11-02T18:34:46.065Z,101016.44
2022-11-02T18:37:19.826Z,101022.64
2022-11-02T18:39:52.642Z,101017.86
2022-11-02T18:42:23.395Z,101022.97
2022-11-02T18:44:55.409Z,101017.23
2022-11-02T18:47:30.287Z,101017.05
2022-11-02T18:50:03.393Z,101022.67
2022-11-02T18:52:40.366Z,101024.82
2022-11-02T18:55:14.239Z,101024.25
2022-11-02T18:57:51.078Z,101029.92
2022-11-02T19:00:24.569Z,101031.30
2022-11-02T19:02:57.684Z,101038.86
2022-11-02T19:05:48.781Z,101044.09
2022-11-02T19:08:55.246Z,101043.33
2022-11-02T19:11:28.392Z,101045.94
2022-11-02T19:14:01.078Z,101039.36
2022-11-02T19:16:33.955Z,101040.28
2022-11-02T19:19:07.132Z,101039.27
2022-11-02T19:21:43.285Z,101039.86
2022-11-02T19:24:21.100Z,101047.59
2022-11-02T19:26:54.978Z,101051.27
2022-11-02T19:29:27.817Z,101053.74
2022-11-02T19:32:02.087Z,101057.88
2022-11-02T19:34:36.938Z,101066.33
2022-11-02T19:37:10.222Z,101066.58
2022-11-02T19:39:43.706Z,101073.36
2022-11-02T19:42:17.257Z,101079.08
2022-11-02T19:44:50.868Z,101085.22
2022-11-02T19:47:24.691Z,101084.38
2022-11-02T19:49:58.563Z,101083.27
2022-11-02T19:52:31.262Z,101084.69
2022-11-02T19:55:02.570Z,101082.87
2022-11-02T19:57:36.334Z,101084.43
2022-11-02T20:00:16.147Z,101090.66
2022-11-02T20:02:52.401Z,101096.23
2022-11-02T20:05:25.855Z,101098.79
2022-11-02T20:07:58.569Z,101101.45
2022-11-02T20:10:30.429Z,101104.95
2022-11-02T20:13:03.348Z,101098.95
2022-11-02T20:15:39.584Z,101100.59
2022-11-02T20:18:19.472Z,101102.04
2022-11-02T20:20:53.108Z,101101.20
2022-11-02T20:23:27.200Z,101104.45
2022-11-02T20:26:05.380Z,101110.16
2022-11-02T20:28:39.959Z,101109.25
2022-11-02T20:31:13.983Z,101113.40
2022-11-02T20:33:46.541Z,101115.88
2022-11-02T20:36:25.218Z,101112.30
2022-11-02T20:39:03.366Z,101109.48
2022-11-02T20:41:39.361Z,101112.92
2022-11-02T20:44:11.639Z,101111.45
2022-11-02T20:46:52.771Z,101116.16
2022-11-02T20:52:22.514Z,101119.90
2022-11-02T20:54:55.893Z,101124.25
2022-11-02T20:57:29.365Z,101128.24
2022-11-02T21:00:04.303Z,101130.36
2022-11-02T21:02:39.347Z,101130.42
2022-11-02T21:05:16.037Z,101135.77
2022-11-02T21:07:52.422Z,101142.12
2022-11-02T21:10:26.112Z,101141.55
2022-11-02T21:13:16.622Z,101146.30
2022-11-02T21:15:50.361Z,101146.25
2022-11-02T21:18:23.846Z,101146.81
2022-11-02T21:20:56.302Z,101144.97
2022-11-02T21:23:28.406Z,101154.08
2022-11-02T21:26:21.864Z,101148.59
2022-11-02T21:28:58.239Z,101159.34
2022-11-02T21:31:31.172Z,101159.34
2022-11-02T21:34:04.628Z,101151.42
2022-11-02T21:36:41.373Z,101154.23
2022-11-02T21:39:19.996Z,101154.14
2022-11-02T21:41:56.887Z,101157.73
2022-11-02T21:44:28.952Z,101154.67
2022-11-02T21:47:02.024Z,101149.96
2022-11-02T21:49:34.362Z,101151.30
2022-11-02T21:52:07.377Z,101150.23
2022-11-02T21:54:44.624Z,101155.96
2022-11-02T21:57:17.266Z,101156.65
2022-11-02T21:59:48.060Z,101158.86
2022-11-02T22:02:25.830Z,101156.42
2022-11-02T22:05:01.503Z,101153.50
2022-11-02T22:07:57.159Z,101154.11
2022-11-02T22:10:30.166Z,101159.23
2022-11-02T22:13:25.861Z,101159.25
2022-11-02T22:16:07.608Z,101162.16
2022-11-02T22:18:40.609Z,101165.10
2022-11-02T22:21:12.470Z,101167.23
2022-11-02T22:23:47.142Z,101168.29
2022-11-02T22:26:21.819Z,101166.92
2022-11-02T22:28:57.730Z,101167.23
2022-11-02T22:31:31.540Z,101170.45
2022-11-02T22:34:06.434Z,101172.85
2022-11-02T22:36:40.716Z,101172.96
2022-11-02T22:39:15.369Z,101178.17
2022-11-02T22:41:49.511Z,101177.42
2022-11-02T22:44:22.385Z,101172.55
2022-11-02T22:46:55.105Z,101169.02
2022-11-02T22:49:27.336Z,101168.63
2022-11-02T22:51:59.557Z,101170.02
2022-11-02T22:54:31.763Z,101172.04
2022-11-02T22:57:05.451Z,101176.54
2022-11-02T22:59:39.334Z,101176.05
2022-11-02T23:02:11.939Z,101177.52
2022-11-02T23:04:44.898Z,101180.26
2022-11-02T23:07:17.233Z,101180.66
2022-11-02T23:09:49.098Z,101183.30
2022-11-02T23:12:21.202Z,101188.14
2022-11-02T23:14:53.090Z,101187.73
2022-11-02T23:17:25.752Z,101183.77
2022-11-02T23:19:56.705Z,101186.48
2022-11-02T23:22:47.018Z,101186.52
2022-11-02T23:25:21.389Z,101194.30
2022-11-02T23:28:17.091Z,101194.54
2022-11-02T23:31:07.331Z,101196.71
2022-11-02T23:33:40.890Z,101196.38
2022-11-02T23:36:16.377Z,101195.72
2022-11-02T23:39:08.240Z,101197.52
2022-11-02T23:41:41.658Z,101200.08
2022-11-02T23:44:14.193Z,101194.52
2022-11-02T23:46:48.649Z,101195.95
2022-11-02T23:49:21.101Z,101196.50
2022-11-02T23:52:10.812Z,101195.98
2022-11-02T23:55:00.297Z,101202.13
2022-11-02T23:57:33.199Z,101200.96
